sensor_id;sensor_type;location;lat;lon;timestamp;P1;durP1;ratioP1;P2;durP2;ratioP2
485;SDS011;229;48.734;9.340;2023-02-27T00:01:24;4.85;;;4.40;;
485;SDS011;229;48.734;9.340;2023-02-27T00:03:53;4.80;;;4.53;;
485;SDS011;229;48.734;9.340;2023-02-27T00:06:21;4.88;;;4.18;;
485;SDS011;229;48.734;9.340;2023-02-27T00:08:56;5.57;;;4.30;;
485;SDS011;229;48.734;9.340;2023-02-27T00:11:23;5.10;;;4.32;;
485;SDS011;229;48.734;9.340;2023-02-27T00:13:50;4.53;;;4.20;;
485;SDS011;229;48.734;9.340;2023-02-27T00:16:17;5.22;;;4.93;;
485;SDS011;229;48.734;9.340;2023-02-27T00:18:46;4.40;;;4.10;;
485;SDS011;229;48.734;9.340;2023-02-27T00:21:17;4.50;;;4.20;;
485;SDS011;229;48.734;9.340;2023-02-27T00:24:18;4.32;;;4.03;;
485;SDS011;229;48.734;9.340;2023-02-27T00:26:48;4.13;;;3.90;;
485;SDS011;229;48.734;9.340;2023-02-27T00:29:15;6.10;;;4.82;;
485;SDS011;229;48.734;9.340;2023-02-27T00:31:43;5.05;;;4.55;;
485;SDS011;229;48.734;9.340;2023-02-27T00:34:10;4.70;;;4.40;;
485;SDS011;229;48.734;9.340;2023-02-27T00:36:39;4.18;;;3.60;;
485;SDS011;229;48.734;9.340;2023-02-27T00:39:06;4.75;;;4.45;;
485;SDS011;229;48.734;9.340;2023-02-27T00:41:35;5.03;;;4.50;;
485;SDS011;229;48.734;9.340;2023-02-27T00:44:04;5.35;;;4.13;;
485;SDS011;229;48.734;9.340;2023-02-27T00:46:31;5.55;;;4.65;;
485;SDS011;229;48.734;9.340;2023-02-27T00:48:58;4.57;;;4.28;;
485;SDS011;229;48.734;9.340;2023-02-27T00:51:25;5.20;;;4.22;;
485;SDS011;229;48.734;9.340;2023-02-27T00:53:53;6.95;;;4.47;;
485;SDS011;229;48.734;9.340;2023-02-27T00:56:20;5.00;;;4.70;;
485;SDS011;229;48.734;9.340;2023-02-27T00:58:50;4.95;;;4.65;;
485;SDS011;229;48.734;9.340;2023-02-27T01:01:17;5.35;;;4.80;;
485;SDS011;229;48.734;9.340;2023-02-27T01:03:44;4.72;;;4.43;;
485;SDS011;229;48.734;9.340;2023-02-27T01:06:11;5.93;;;4.35;;
485;SDS011;229;48.734;9.340;2023-02-27T01:08:39;4.60;;;4.32;;
485;SDS011;229;48.734;9.340;2023-02-27T01:11:06;6.80;;;4.30;;
485;SDS011;229;48.734;9.340;2023-02-27T01:13:33;4.78;;;4.53;;
485;SDS011;229;48.734;9.340;2023-02-27T01:30:46;4.47;;;4.20;;
485;SDS011;229;48.734;9.340;2023-02-27T01:33:29;4.47;;;4.18;;
485;SDS011;229;48.734;9.340;2023-02-27T01:36:14;7.65;;;4.50;;
485;SDS011;229;48.734;9.340;2023-02-27T01:38:57;5.32;;;4.90;;
485;SDS011;229;48.734;9.340;2023-02-27T01:41:45;5.07;;;4.28;;
485;SDS011;229;48.734;9.340;2023-02-27T01:44:33;4.72;;;4.43;;
485;SDS011;229;48.734;9.340;2023-02-27T01:53:35;4.45;;;4.18;;
485;SDS011;229;48.734;9.340;2023-02-27T01:56:06;4.65;;;4.35;;
485;SDS011;229;48.734;9.340;2023-02-27T01:58:35;4.50;;;4.20;;
485;SDS011;229;48.734;9.340;2023-02-27T02:01:02;6.05;;;4.90;;
485;SDS011;229;48.734;9.340;2023-02-27T02:03:31;5.00;;;4.70;;
485;SDS011;229;48.734;9.340;2023-02-27T02:06:00;4.78;;;4.53;;
485;SDS011;229;48.734;9.340;2023-02-27T02:08:31;4.93;;;4.65;;
485;SDS011;229;48.734;9.340;2023-02-27T02:11:00;6.03;;;5.00;;
485;SDS011;229;48.734;9.340;2023-02-27T02:13:27;5.15;;;4.85;;
485;SDS011;229;48.734;9.340;2023-02-27T02:16:01;5.07;;;4.78;;
485;SDS011;229;48.734;9.340;2023-02-27T02:18:32;4.90;;;4.60;;
485;SDS011;229;48.734;9.340;2023-02-27T02:21:15;5.03;;;4.70;;
485;SDS011;229;48.734;9.340;2023-02-27T02:26:49;5.97;;;5.30;;
485;SDS011;229;48.734;9.340;2023-02-27T02:29:42;5.13;;;4.82;;
485;SDS011;229;48.734;9.340;2023-02-27T02:35:29;14.10;;;5.60;;
485;SDS011;229;48.734;9.340;2023-02-27T02:40:49;6.18;;;5.15;;
485;SDS011;229;48.734;9.340;2023-02-27T02:43:37;5.40;;;5.10;;
485;SDS011;229;48.734;9.340;2023-02-27T02:46:12;5.10;;;4.80;;
485;SDS011;229;48.734;9.340;2023-02-27T03:06:49;5.38;;;4.93;;
485;SDS011;229;48.734;9.340;2023-02-27T03:09:22;6.25;;;5.10;;
485;SDS011;229;48.734;9.340;2023-02-27T03:11:52;5.53;;;4.75;;
485;SDS011;229;48.734;9.340;2023-02-27T03:14:26;5.78;;;5.47;;
485;SDS011;229;48.734;9.340;2023-02-27T03:16:58;7.78;;;6.28;;
485;SDS011;229;48.734;9.340;2023-02-27T03:19:27;5.45;;;5.15;;
485;SDS011;229;48.734;9.340;2023-02-27T03:21:58;5.45;;;5.15;;
485;SDS011;229;48.734;9.340;2023-02-27T03:24:26;8.90;;;5.13;;
485;SDS011;229;48.734;9.340;2023-02-27T03:26:56;5.80;;;5.50;;
485;SDS011;229;48.734;9.340;2023-02-27T03:29:28;5.55;;;5.25;;
485;SDS011;229;48.734;9.340;2023-02-27T03:31:57;5.45;;;5.13;;
485;SDS011;229;48.734;9.340;2023-02-27T03:34:28;6.40;;;5.50;;
485;SDS011;229;48.734;9.340;2023-02-27T03:36:59;5.80;;;5.53;;
485;SDS011;229;48.734;9.340;2023-02-27T03:39:30;5.60;;;5.30;;
485;SDS011;229;48.734;9.340;2023-02-27T03:42:03;5.60;;;5.30;;
485;SDS011;229;48.734;9.340;2023-02-27T03:44:32;7.55;;;5.43;;
485;SDS011;229;48.734;9.340;2023-02-27T03:47:01;5.28;;;4.97;;
485;SDS011;229;48.734;9.340;2023-02-27T03:49:28;6.00;;;5.72;;
485;SDS011;229;48.734;9.340;2023-02-27T03:51:55;5.35;;;5.03;;
485;SDS011;229;48.734;9.340;2023-02-27T03:54:25;5.68;;;4.88;;
485;SDS011;229;48.734;9.340;2023-02-27T03:56:54;4.88;;;4.60;;
485;SDS011;229;48.734;9.340;2023-02-27T03:59:22;6.07;;;4.80;;
485;SDS011;229;48.734;9.340;2023-02-27T04:01:50;7.85;;;5.68;;
485;SDS011;229;48.734;9.340;2023-02-27T04:04:18;6.00;;;5.70;;
485;SDS011;229;48.734;9.340;2023-02-27T04:06:48;5.80;;;5.50;;
485;SDS011;229;48.734;9.340;2023-02-27T04:09:40;7.45;;;5.47;;
485;SDS011;229;48.734;9.340;2023-02-27T04:12:14;6.20;;;5.43;;
485;SDS011;229;48.734;9.340;2023-02-27T04:14:49;5.93;;;5.43;;
485;SDS011;229;48.734;9.340;2023-02-27T04:17:20;7.30;;;5.97;;
485;SDS011;229;48.734;9.340;2023-02-27T04:19:52;5.50;;;5.20;;
485;SDS011;229;48.734;9.340;2023-02-27T04:22:28;10.90;;;6.45;;
485;SDS011;229;48.734;9.340;2023-02-27T04:25:02;6.65;;;4.93;;
485;SDS011;229;48.734;9.340;2023-02-27T04:27:33;6.93;;;5.07;;
485;SDS011;229;48.734;9.340;2023-02-27T04:30:03;6.53;;;5.45;;
485;SDS011;229;48.734;9.340;2023-02-27T04:32:36;6.75;;;5.32;;
485;SDS011;229;48.734;9.340;2023-02-27T04:35:04;8.05;;;5.30;;
485;SDS011;229;48.734;9.340;2023-02-27T04:37:34;6.03;;;5.07;;
485;SDS011;229;48.734;9.340;2023-02-27T04:40:06;5.50;;;5.22;;
485;SDS011;229;48.734;9.340;2023-02-27T04:42:36;5.80;;;5.50;;
485;SDS011;229;48.734;9.340;2023-02-27T04:45:05;9.18;;;6.07;;
485;SDS011;229;48.734;9.340;2023-02-27T04:47:34;8.63;;;6.10;;
485;SDS011;229;48.734;9.340;2023-02-27T04:50:04;5.70;;;5.40;;
485;SDS011;229;48.734;9.340;2023-02-27T04:52:34;8.13;;;6.07;;
485;SDS011;229;48.734;9.340;2023-02-27T04:55:03;5.32;;;5.03;;
485;SDS011;229;48.734;9.340;2023-02-27T04:57:33;7.05;;;5.22;;
485;SDS011;229;48.734;9.340;2023-02-27T05:00:03;7.03;;;5.15;;
485;SDS011;229;48.734;9.340;2023-02-27T05:02:34;7.60;;;5.72;;
485;SDS011;229;48.734;9.340;2023-02-27T05:05:03;8.25;;;5.10;;
485;SDS011;229;48.734;9.340;2023-02-27T05:07:32;5.75;;;5.45;;
485;SDS011;229;48.734;9.340;2023-02-27T05:10:02;6.95;;;5.50;;
485;SDS011;229;48.734;9.340;2023-02-27T05:12:31;6.93;;;5.43;;
485;SDS011;229;48.734;9.340;2023-02-27T05:15:02;10.55;;;5.78;;
485;SDS011;229;48.734;9.340;2023-02-27T05:17:30;6.03;;;5.72;;
485;SDS011;229;48.734;9.340;2023-02-27T05:19:59;5.90;;;5.60;;
485;SDS011;229;48.734;9.340;2023-02-27T05:22:27;5.43;;;5.13;;
485;SDS011;229;48.734;9.340;2023-02-27T05:24:57;6.60;;;6.05;;
485;SDS011;229;48.734;9.340;2023-02-27T05:27:29;8.45;;;5.72;;
485;SDS011;229;48.734;9.340;2023-02-27T05:30:00;5.78;;;5.47;;
485;SDS011;229;48.734;9.340;2023-02-27T05:32:32;8.15;;;6.30;;
485;SDS011;229;48.734;9.340;2023-02-27T05:35:04;7.63;;;5.55;;
485;SDS011;229;48.734;9.340;2023-02-27T05:37:34;6.00;;;5.70;;
485;SDS011;229;48.734;9.340;2023-02-27T05:40:03;6.78;;;5.70;;
485;SDS011;229;48.734;9.340;2023-02-27T05:42:33;9.77;;;6.15;;
485;SDS011;229;48.734;9.340;2023-02-27T05:45:02;5.82;;;5.55;;
485;SDS011;229;48.734;9.340;2023-02-27T05:47:33;10.57;;;6.22;;
485;SDS011;229;48.734;9.340;2023-02-27T05:50:05;11.13;;;7.57;;
485;SDS011;229;48.734;9.340;2023-02-27T05:52:34;7.75;;;6.75;;
485;SDS011;229;48.734;9.340;2023-02-27T05:55:03;7.55;;;7.15;;
485;SDS011;229;48.734;9.340;2023-02-27T05:57:32;7.28;;;6.88;;
485;SDS011;229;48.734;9.340;2023-02-27T06:00:03;8.80;;;8.30;;
485;SDS011;229;48.734;9.340;2023-02-27T06:02:30;9.32;;;7.10;;
485;SDS011;229;48.734;9.340;2023-02-27T06:04:59;8.82;;;7.60;;
485;SDS011;229;48.734;9.340;2023-02-27T06:07:29;8.05;;;7.65;;
485;SDS011;229;48.734;9.340;2023-02-27T06:09:56;10.68;;;8.07;;
485;SDS011;229;48.734;9.340;2023-02-27T06:12:24;7.38;;;6.50;;
485;SDS011;229;48.734;9.340;2023-02-27T06:14:51;7.25;;;6.85;;
485;SDS011;229;48.734;9.340;2023-02-27T06:17:18;11.80;;;7.75;;
485;SDS011;229;48.734;9.340;2023-02-27T06:19:45;8.50;;;7.43;;
485;SDS011;229;48.734;9.340;2023-02-27T06:22:14;7.95;;;7.25;;
485;SDS011;229;48.734;9.340;2023-02-27T06:24:41;11.10;;;7.93;;
485;SDS011;229;48.734;9.340;2023-02-27T06:27:08;9.25;;;7.90;;
485;SDS011;229;48.734;9.340;2023-02-27T06:29:35;8.30;;;7.82;;
485;SDS011;229;48.734;9.340;2023-02-27T06:32:03;8.98;;;7.38;;
485;SDS011;229;48.734;9.340;2023-02-27T06:34:30;7.80;;;7.40;;
485;SDS011;229;48.734;9.340;2023-02-27T06:36:57;8.77;;;7.50;;
485;SDS011;229;48.734;9.340;2023-02-27T06:39:26;7.45;;;7.05;;
485;SDS011;229;48.734;9.340;2023-02-27T06:41:53;8.45;;;7.88;;
485;SDS011;229;48.734;9.340;2023-02-27T06:44:20;8.57;;;7.78;;
485;SDS011;229;48.734;9.340;2023-02-27T06:46:47;8.30;;;6.95;;
485;SDS011;229;48.734;9.340;2023-02-27T06:49:15;7.90;;;7.50;;
485;SDS011;229;48.734;9.340;2023-02-27T06:51:43;8.07;;;7.53;;
485;SDS011;229;48.734;9.340;2023-02-27T06:54:10;7.00;;;6.60;;
485;SDS011;229;48.734;9.340;2023-02-27T06:56:38;7.30;;;6.90;;
485;SDS011;229;48.734;9.340;2023-02-27T06:59:06;6.82;;;6.45;;
485;SDS011;229;48.734;9.340;2023-02-27T07:01:33;6.95;;;6.55;;
485;SDS011;229;48.734;9.340;2023-02-27T07:04:00;6.97;;;6.57;;
485;SDS011;229;48.734;9.340;2023-02-27T07:06:28;7.18;;;6.80;;
485;SDS011;229;48.734;9.340;2023-02-27T07:08:55;7.40;;;7.00;;
485;SDS011;229;48.734;9.340;2023-02-27T07:11:22;7.88;;;7.47;;
485;SDS011;229;48.734;9.340;2023-02-27T07:13:51;9.30;;;7.22;;
485;SDS011;229;48.734;9.340;2023-02-27T07:16:21;7.45;;;7.05;;
485;SDS011;229;48.734;9.340;2023-02-27T07:18:48;7.55;;;7.15;;
485;SDS011;229;48.734;9.340;2023-02-27T07:21:15;7.95;;;6.47;;
485;SDS011;229;48.734;9.340;2023-02-27T07:23:43;7.25;;;6.78;;
485;SDS011;229;48.734;9.340;2023-02-27T07:26:10;7.88;;;7.13;;
485;SDS011;229;48.734;9.340;2023-02-27T07:28:37;7.97;;;7.28;;
485;SDS011;229;48.734;9.340;2023-02-27T07:31:05;6.70;;;6.30;;
485;SDS011;229;48.734;9.340;2023-02-27T07:33:33;7.50;;;7.10;;
485;SDS011;229;48.734;9.340;2023-02-27T07:36:00;8.00;;;7.60;;
485;SDS011;229;48.734;9.340;2023-02-27T07:38:27;6.40;;;6.05;;
485;SDS011;229;48.734;9.340;2023-02-27T07:40:56;7.35;;;6.95;;
485;SDS011;229;48.734;9.340;2023-02-27T07:43:23;7.03;;;6.55;;
485;SDS011;229;48.734;9.340;2023-02-27T07:45:51;7.53;;;7.13;;
485;SDS011;229;48.734;9.340;2023-02-27T07:48:19;8.65;;;8.07;;
485;SDS011;229;48.734;9.340;2023-02-27T07:50:46;9.20;;;8.70;;
485;SDS011;229;48.734;9.340;2023-02-27T07:53:14;8.48;;;8.00;;
485;SDS011;229;48.734;9.340;2023-02-27T07:55:41;7.43;;;7.03;;
485;SDS011;229;48.734;9.340;2023-02-27T07:58:08;8.30;;;7.15;;
485;SDS011;229;48.734;9.340;2023-02-27T08:00:35;13.77;;;6.88;;
485;SDS011;229;48.734;9.340;2023-02-27T08:03:03;9.10;;;7.05;;
485;SDS011;229;48.734;9.340;2023-02-27T08:05:31;9.00;;;8.20;;
485;SDS011;229;48.734;9.340;2023-02-27T08:08:00;7.80;;;6.60;;
485;SDS011;229;48.734;9.340;2023-02-27T08:10:27;8.70;;;7.38;;
485;SDS011;229;48.734;9.340;2023-02-27T08:12:54;7.32;;;6.93;;
485;SDS011;229;48.734;9.340;2023-02-27T08:15:22;7.65;;;7.28;;
485;SDS011;229;48.734;9.340;2023-02-27T08:17:49;6.55;;;5.93;;
485;SDS011;229;48.734;9.340;2023-02-27T08:20:16;6.50;;;6.10;;
485;SDS011;229;48.734;9.340;2023-02-27T08:22:47;7.32;;;6.40;;
485;SDS011;229;48.734;9.340;2023-02-27T08:25:15;8.13;;;6.85;;
485;SDS011;229;48.734;9.340;2023-02-27T08:27:42;6.95;;;5.40;;
485;SDS011;229;48.734;9.340;2023-02-27T08:30:10;5.55;;;5.15;;
485;SDS011;229;48.734;9.340;2023-02-27T08:32:37;7.00;;;5.90;;
485;SDS011;229;48.734;9.340;2023-02-27T08:35:05;5.50;;;5.20;;
485;SDS011;229;48.734;9.340;2023-02-27T08:37:32;6.28;;;5.50;;
485;SDS011;229;48.734;9.340;2023-02-27T08:40:01;7.32;;;5.30;;
485;SDS011;229;48.734;9.340;2023-02-27T08:42:30;8.98;;;5.15;;
485;SDS011;229;48.734;9.340;2023-02-27T08:44:58;5.53;;;5.25;;
485;SDS011;229;48.734;9.340;2023-02-27T08:47:25;5.70;;;5.47;;
485;SDS011;229;48.734;9.340;2023-02-27T08:49:52;12.20;;;5.90;;
485;SDS011;229;48.734;9.340;2023-02-27T08:52:20;6.20;;;5.07;;
485;SDS011;229;48.734;9.340;2023-02-27T08:54:47;6.40;;;6.00;;
485;SDS011;229;48.734;9.340;2023-02-27T08:57:16;6.45;;;6.05;;
485;SDS011;229;48.734;9.340;2023-02-27T08:59:43;7.13;;;6.72;;
485;SDS011;229;48.734;9.340;2023-02-27T09:02:10;6.35;;;5.97;;
485;SDS011;229;48.734;9.340;2023-02-27T09:04:37;6.40;;;6.00;;
485;SDS011;229;48.734;9.340;2023-02-27T09:07:05;6.20;;;5.90;;
485;SDS011;229;48.734;9.340;2023-02-27T09:09:32;6.75;;;6.35;;
485;SDS011;229;48.734;9.340;2023-02-27T09:11:59;7.72;;;5.53;;
485;SDS011;229;48.734;9.340;2023-02-27T09:14:28;5.47;;;5.18;;
485;SDS011;229;48.734;9.340;2023-02-27T09:16:55;11.25;;;6.57;;
485;SDS011;229;48.734;9.340;2023-02-27T09:19:22;5.30;;;5.00;;
485;SDS011;229;48.734;9.340;2023-02-27T09:21:49;5.40;;;5.10;;
485;SDS011;229;48.734;9.340;2023-02-27T09:24:17;5.32;;;5.03;;
485;SDS011;229;48.734;9.340;2023-02-27T09:26:44;5.47;;;5.18;;
485;SDS011;229;48.734;9.340;2023-02-27T09:29:11;7.25;;;5.97;;
485;SDS011;229;48.734;9.340;2023-02-27T09:31:40;8.00;;;6.13;;
485;SDS011;229;48.734;9.340;2023-02-27T09:34:07;7.47;;;5.55;;
485;SDS011;229;48.734;9.340;2023-02-27T09:36:34;5.90;;;5.57;;
485;SDS011;229;48.734;9.340;2023-02-27T09:39:02;5.88;;;5.57;;
485;SDS011;229;48.734;9.340;2023-02-27T09:44:14;11.77;;;6.63;;
485;SDS011;229;48.734;9.340;2023-02-27T09:46:43;7.18;;;6.22;;
485;SDS011;229;48.734;9.340;2023-02-27T09:49:11;8.73;;;6.18;;
485;SDS011;229;48.734;9.340;2023-02-27T09:51:41;6.55;;;6.15;;
485;SDS011;229;48.734;9.340;2023-02-27T09:54:08;5.80;;;5.50;;
485;SDS011;229;48.734;9.340;2023-02-27T09:56:38;9.10;;;5.60;;
485;SDS011;229;48.734;9.340;2023-02-27T09:59:11;6.10;;;5.80;;
485;SDS011;229;48.734;9.340;2023-02-27T10:01:42;4.90;;;4.60;;
485;SDS011;229;48.734;9.340;2023-02-27T10:04:27;6.03;;;5.68;;
485;SDS011;229;48.734;9.340;2023-02-27T10:06:56;5.68;;;5.38;;
485;SDS011;229;48.734;9.340;2023-02-27T10:09:27;5.40;;;5.10;;
485;SDS011;229;48.734;9.340;2023-02-27T10:11:58;8.00;;;5.60;;
485;SDS011;229;48.734;9.340;2023-02-27T10:14:30;5.03;;;4.72;;
485;SDS011;229;48.734;9.340;2023-02-27T10:17:02;5.82;;;5.57;;
485;SDS011;229;48.734;9.340;2023-02-27T10:19:32;4.75;;;4.45;;
485;SDS011;229;48.734;9.340;2023-02-27T10:22:00;6.38;;;5.45;;
485;SDS011;229;48.734;9.340;2023-02-27T10:24:30;5.35;;;5.07;;
485;SDS011;229;48.734;9.340;2023-02-27T10:26:58;5.85;;;5.47;;
485;SDS011;229;48.734;9.340;2023-02-27T10:29:28;5.30;;;5.00;;
485;SDS011;229;48.734;9.340;2023-02-27T10:31:57;6.68;;;5.03;;
485;SDS011;229;48.734;9.340;2023-02-27T10:34:26;5.30;;;5.00;;
485;SDS011;229;48.734;9.340;2023-02-27T10:36:56;5.22;;;4.93;;
485;SDS011;229;48.734;9.340;2023-02-27T10:39:24;5.43;;;5.15;;
485;SDS011;229;48.734;9.340;2023-02-27T10:41:53;5.38;;;4.47;;
485;SDS011;229;48.734;9.340;2023-02-27T10:44:21;5.82;;;5.53;;
485;SDS011;229;48.734;9.340;2023-02-27T10:46:48;5.45;;;5.15;;
485;SDS011;229;48.734;9.340;2023-02-27T10:49:16;5.80;;;5.50;;
485;SDS011;229;48.734;9.340;2023-02-27T10:51:45;5.80;;;5.28;;
485;SDS011;229;48.734;9.340;2023-02-27T10:54:15;5.32;;;5.03;;
485;SDS011;229;48.734;9.340;2023-02-27T10:56:43;7.03;;;5.75;;
485;SDS011;229;48.734;9.340;2023-02-27T10:59:16;7.25;;;6.13;;
485;SDS011;229;48.734;9.340;2023-02-27T11:01:46;6.10;;;5.55;;
485;SDS011;229;48.734;9.340;2023-02-27T11:04:13;6.32;;;5.97;;
485;SDS011;229;48.734;9.340;2023-02-27T11:06:49;9.43;;;6.10;;
485;SDS011;229;48.734;9.340;2023-02-27T11:09:19;6.60;;;6.20;;
485;SDS011;229;48.734;9.340;2023-02-27T11:11:47;5.85;;;5.55;;
485;SDS011;229;48.734;9.340;2023-02-27T11:14:21;7.57;;;5.60;;
485;SDS011;229;48.734;9.340;2023-02-27T11:16:50;8.57;;;5.93;;
485;SDS011;229;48.734;9.340;2023-02-27T11:19:31;7.32;;;5.40;;
485;SDS011;229;48.734;9.340;2023-02-27T11:22:04;5.50;;;5.20;;
485;SDS011;229;48.734;9.340;2023-02-27T11:24:33;6.20;;;5.28;;
485;SDS011;229;48.734;9.340;2023-02-27T11:27:01;5.65;;;5.35;;
485;SDS011;229;48.734;9.340;2023-02-27T11:29:29;5.30;;;5.00;;
485;SDS011;229;48.734;9.340;2023-02-27T11:31:57;5.78;;;5.47;;
485;SDS011;229;48.734;9.340;2023-02-27T11:34:26;5.75;;;5.30;;
485;SDS011;229;48.734;9.340;2023-02-27T11:36:55;5.78;;;5.28;;
485;SDS011;229;48.734;9.340;2023-02-27T11:39:33;7.65;;;5.13;;
485;SDS011;229;48.734;9.340;2023-02-27T11:42:06;5.00;;;4.70;;
485;SDS011;229;48.734;9.340;2023-02-27T11:44:35;6.95;;;5.78;;
485;SDS011;229;48.734;9.340;2023-02-27T11:47:11;12.07;;;4.95;;
485;SDS011;229;48.734;9.340;2023-02-27T11:49:41;5.80;;;5.50;;
485;SDS011;229;48.734;9.340;2023-02-27T11:52:15;5.85;;;5.55;;
485;SDS011;229;48.734;9.340;2023-02-27T11:54:48;7.38;;;5.38;;
485;SDS011;229;48.734;9.340;2023-02-27T11:57:19;7.10;;;5.70;;
485;SDS011;229;48.734;9.340;2023-02-27T11:59:50;6.07;;;5.20;;
485;SDS011;229;48.734;9.340;2023-02-27T12:02:21;5.93;;;5.00;;
485;SDS011;229;48.734;9.340;2023-02-27T12:04:50;5.32;;;5.03;;
485;SDS011;229;48.734;9.340;2023-02-27T12:07:19;5.43;;;5.13;;
485;SDS011;229;48.734;9.340;2023-02-27T12:09:53;7.70;;;5.82;;
485;SDS011;229;48.734;9.340;2023-02-27T12:12:23;5.32;;;5.00;;
485;SDS011;229;48.734;9.340;2023-02-27T12:14:54;5.25;;;4.43;;
485;SDS011;229;48.734;9.340;2023-02-27T12:17:24;5.78;;;5.28;;
485;SDS011;229;48.734;9.340;2023-02-27T12:19:59;7.07;;;5.55;;
485;SDS011;229;48.734;9.340;2023-02-27T12:22:28;5.63;;;4.65;;
485;SDS011;229;48.734;9.340;2023-02-27T12:24:59;4.90;;;4.60;;
485;SDS011;229;48.734;9.340;2023-02-27T12:27:30;5.10;;;4.78;;
485;SDS011;229;48.734;9.340;2023-02-27T12:30:01;4.68;;;4.20;;
485;SDS011;229;48.734;9.340;2023-02-27T12:32:32;5.10;;;4.40;;
485;SDS011;229;48.734;9.340;2023-02-27T12:35:05;4.60;;;4.30;;
485;SDS011;229;48.734;9.340;2023-02-27T12:37:37;4.70;;;4.40;;
485;SDS011;229;48.734;9.340;2023-02-27T12:40:06;6.05;;;5.70;;
485;SDS011;229;48.734;9.340;2023-02-27T12:42:41;4.97;;;4.68;;
485;SDS011;229;48.734;9.340;2023-02-27T12:48:02;5.95;;;4.90;;
485;SDS011;229;48.734;9.340;2023-02-27T12:50:39;7.15;;;4.88;;
485;SDS011;229;48.734;9.340;2023-02-27T12:53:11;5.78;;;4.65;;
485;SDS011;229;48.734;9.340;2023-02-27T12:55:47;5.32;;;5.03;;
485;SDS011;229;48.734;9.340;2023-02-27T12:58:23;5.55;;;4.90;;
485;SDS011;229;48.734;9.340;2023-02-27T13:00:56;4.95;;;4.60;;
485;SDS011;229;48.734;9.340;2023-02-27T13:03:26;8.27;;;4.97;;
485;SDS011;229;48.734;9.340;2023-02-27T13:05:56;5.88;;;5.15;;
485;SDS011;229;48.734;9.340;2023-02-27T13:11:12;5.20;;;4.90;;
485;SDS011;229;48.734;9.340;2023-02-27T13:13:43;5.18;;;4.88;;
485;SDS011;229;48.734;9.340;2023-02-27T13:16:13;6.90;;;4.72;;
485;SDS011;229;48.734;9.340;2023-02-27T13:18:42;4.93;;;4.63;;
485;SDS011;229;48.734;9.340;2023-02-27T13:21:11;6.70;;;4.93;;
485;SDS011;229;48.734;9.340;2023-02-27T13:23:42;5.93;;;4.78;;
485;SDS011;229;48.734;9.340;2023-02-27T13:26:15;5.65;;;5.35;;
485;SDS011;229;48.734;9.340;2023-02-27T13:28:44;5.18;;;4.88;;
485;SDS011;229;48.734;9.340;2023-02-27T13:31:13;6.43;;;6.03;;
485;SDS011;229;48.734;9.340;2023-02-27T13:33:42;6.38;;;5.93;;
485;SDS011;229;48.734;9.340;2023-02-27T13:36:12;5.50;;;5.20;;
485;SDS011;229;48.734;9.340;2023-02-27T13:38:42;5.90;;;5.60;;
485;SDS011;229;48.734;9.340;2023-02-27T13:44:00;5.82;;;5.57;;
485;SDS011;229;48.734;9.340;2023-02-27T13:46:48;8.60;;;7.70;;
485;SDS011;229;48.734;9.340;2023-02-27T13:49:22;6.60;;;6.20;;
485;SDS011;229;48.734;9.340;2023-02-27T13:51:50;4.85;;;4.57;;
485;SDS011;229;48.734;9.340;2023-02-27T13:54:21;10.65;;;6.22;;
485;SDS011;229;48.734;9.340;2023-02-27T13:56:49;5.53;;;5.22;;
485;SDS011;229;48.734;9.340;2023-02-27T13:59:18;5.65;;;5.35;;
485;SDS011;229;48.734;9.340;2023-02-27T14:01:49;5.85;;;5.55;;
485;SDS011;229;48.734;9.340;2023-02-27T14:04:17;6.03;;;5.72;;
485;SDS011;229;48.734;9.340;2023-02-27T14:06:45;5.50;;;5.20;;
485;SDS011;229;48.734;9.340;2023-02-27T14:09:16;7.90;;;5.80;;
485;SDS011;229;48.734;9.340;2023-02-27T14:11:49;6.45;;;4.65;;
485;SDS011;229;48.734;9.340;2023-02-27T14:14:34;5.90;;;4.28;;
485;SDS011;229;48.734;9.340;2023-02-27T14:17:04;5.47;;;5.22;;
485;SDS011;229;48.734;9.340;2023-02-27T14:22:29;4.95;;;4.65;;
485;SDS011;229;48.734;9.340;2023-02-27T14:24:57;5.78;;;4.70;;
485;SDS011;229;48.734;9.340;2023-02-27T14:27:29;5.13;;;4.82;;
485;SDS011;229;48.734;9.340;2023-02-27T14:29:57;6.55;;;4.45;;
485;SDS011;229;48.734;9.340;2023-02-27T14:32:28;7.22;;;5.15;;
485;SDS011;229;48.734;9.340;2023-02-27T14:34:57;4.80;;;4.55;;
485;SDS011;229;48.734;9.340;2023-02-27T14:37:25;4.88;;;4.57;;
485;SDS011;229;48.734;9.340;2023-02-27T14:39:53;5.00;;;4.70;;
485;SDS011;229;48.734;9.340;2023-02-27T14:42:30;5.70;;;5.40;;
485;SDS011;229;48.734;9.340;2023-02-27T14:45:01;5.35;;;5.05;;
485;SDS011;229;48.734;9.340;2023-02-27T14:47:30;4.47;;;4.18;;
485;SDS011;229;48.734;9.340;2023-02-27T14:49:59;5.38;;;4.97;;
485;SDS011;229;48.734;9.340;2023-02-27T14:52:29;5.85;;;5.35;;
485;SDS011;229;48.734;9.340;2023-02-27T14:55:04;5.47;;;5.00;;
485;SDS011;229;48.734;9.340;2023-02-27T14:57:32;6.85;;;5.50;;
485;SDS011;229;48.734;9.340;2023-02-27T14:59:59;6.40;;;5.20;;
485;SDS011;229;48.734;9.340;2023-02-27T15:02:27;6.03;;;5.10;;
485;SDS011;229;48.734;9.340;2023-02-27T15:05:11;6.20;;;5.15;;
485;SDS011;229;48.734;9.340;2023-02-27T15:07:39;5.93;;;5.63;;
485;SDS011;229;48.734;9.340;2023-02-27T15:10:08;6.22;;;5.75;;
485;SDS011;229;48.734;9.340;2023-02-27T15:12:36;6.10;;;5.13;;
485;SDS011;229;48.734;9.340;2023-02-27T15:15:04;5.70;;;5.40;;
485;SDS011;229;48.734;9.340;2023-02-27T15:17:35;5.88;;;5.57;;
485;SDS011;229;48.734;9.340;2023-02-27T15:20:19;5.53;;;5.18;;
485;SDS011;229;48.734;9.340;2023-02-27T15:22:48;7.15;;;5.00;;
485;SDS011;229;48.734;9.340;2023-02-27T15:25:25;5.25;;;4.95;;
485;SDS011;229;48.734;9.340;2023-02-27T15:27:53;6.03;;;5.10;;
485;SDS011;229;48.734;9.340;2023-02-27T15:30:20;4.93;;;4.63;;
485;SDS011;229;48.734;9.340;2023-02-27T15:32:48;5.50;;;5.13;;
485;SDS011;229;48.734;9.340;2023-02-27T15:35:18;5.80;;;4.97;;
485;SDS011;229;48.734;9.340;2023-02-27T15:37:47;6.25;;;5.63;;
485;SDS011;229;48.734;9.340;2023-02-27T15:40:16;8.95;;;8.35;;
485;SDS011;229;48.734;9.340;2023-02-27T15:42:45;6.80;;;5.20;;
485;SDS011;229;48.734;9.340;2023-02-27T15:45:14;5.40;;;5.10;;
485;SDS011;229;48.734;9.340;2023-02-27T15:47:43;5.60;;;4.85;;
485;SDS011;229;48.734;9.340;2023-02-27T15:50:25;6.00;;;4.55;;
485;SDS011;229;48.734;9.340;2023-02-27T15:52:58;4.40;;;4.10;;
485;SDS011;229;48.734;9.340;2023-02-27T15:55:26;4.80;;;4.25;;
485;SDS011;229;48.734;9.340;2023-02-27T15:57:54;5.45;;;4.40;;
485;SDS011;229;48.734;9.340;2023-02-27T16:00:21;10.18;;;5.65;;
485;SDS011;229;48.734;9.340;2023-02-27T16:02:50;5.50;;;5.20;;
485;SDS011;229;48.734;9.340;2023-02-27T16:05:20;4.53;;;4.22;;
485;SDS011;229;48.734;9.340;2023-02-27T16:07:47;5.90;;;4.55;;
485;SDS011;229;48.734;9.340;2023-02-27T16:10:17;6.57;;;4.65;;
485;SDS011;229;48.734;9.340;2023-02-27T16:12:46;5.93;;;4.75;;
485;SDS011;229;48.734;9.340;2023-02-27T16:15:21;5.00;;;4.07;;
485;SDS011;229;48.734;9.340;2023-02-27T16:17:52;5.00;;;4.70;;
485;SDS011;229;48.734;9.340;2023-02-27T16:20:27;4.43;;;4.13;;
485;SDS011;229;48.734;9.340;2023-02-27T16:23:01;6.00;;;4.28;;
485;SDS011;229;48.734;9.340;2023-02-27T16:25:30;4.72;;;4.50;;
485;SDS011;229;48.734;9.340;2023-02-27T16:27:57;4.65;;;4.28;;
485;SDS011;229;48.734;9.340;2023-02-27T16:30:25;4.70;;;4.40;;
485;SDS011;229;48.734;9.340;2023-02-27T16:32:57;4.28;;;4.00;;
485;SDS011;229;48.734;9.340;2023-02-27T16:35:26;6.40;;;4.40;;
485;SDS011;229;48.734;9.340;2023-02-27T16:37:58;3.70;;;3.50;;
485;SDS011;229;48.734;9.340;2023-02-27T16:40:25;5.15;;;4.20;;
485;SDS011;229;48.734;9.340;2023-02-27T16:42:54;4.43;;;4.13;;
485;SDS011;229;48.734;9.340;2023-02-27T16:45:22;6.35;;;4.80;;
485;SDS011;229;48.734;9.340;2023-02-27T16:47:51;5.57;;;5.07;;
485;SDS011;229;48.734;9.340;2023-02-27T16:50:20;4.63;;;4.32;;
485;SDS011;229;48.734;9.340;2023-02-27T16:52:47;5.95;;;4.38;;
485;SDS011;229;48.734;9.340;2023-02-27T16:55:14;4.90;;;4.60;;
485;SDS011;229;48.734;9.340;2023-02-27T16:57:41;4.60;;;4.30;;
485;SDS011;229;48.734;9.340;2023-02-27T17:00:11;4.65;;;4.35;;
485;SDS011;229;48.734;9.340;2023-02-27T17:02:39;5.63;;;4.35;;
485;SDS011;229;48.734;9.340;2023-02-27T17:05:07;5.80;;;4.10;;